Time;durP1;ratioP1;P1;durP2;ratioP2;P2;SDS_P1;SDS_P2;PMS_P1;PMS_P2;Temp;Humidity;BMP_temperature;BMP_pressure;BME280_temperature;BME280_humidity;BME280_pressure;Samples;Min_cycle;Max_cycle;Signal;HPM_P1;HPM_P2
2023/10/25 00:02:33;;;;;;;16.13;7.25;;;;;;;10.52;100.00;98673.44;12174973;19;20118;-82
2023/10/25 00:06:35;;;;;;;16.95;7.35;;;;;;;10.50;100.00;98673.72;12200314;19;20002;-80
2023/10/25 00:10:36;;;;;;;15.18;6.65;;;;;;;10.46;100.00;98681.69;12196949;19;20026;-82
2023/10/25 00:14:41;;;;;;;17.27;6.68;;;;;;;10.45;100.00;98673.72;12177071;19;20647;-81
2023/10/25 00:18:43;;;;;;;20.63;7.80;;;;;;;10.47;100.00;98669.59;12206951;19;20011;-81
2023/10/25 00:22:45;;;;;;;16.63;6.83;;;;;;;10.51;100.00;98664.34;12204109;19;20058;-81
2023/10/25 00:26:47;;;;;;;19.73;7.13;;;;;;;10.52;100.00;98663.25;12180160;19;20006;-81
2023/10/25 00:30:50;;;;;;;10.05;5.28;;;;;;;10.55;100.00;98659.94;12200459;19;19999;-80
2023/10/25 00:34:52;;;;;;;15.05;7.55;;;;;;;10.58;100.00;98667.63;12207182;19;20041;-80
2023/10/25 00:38:55;;;;;;;16.75;7.25;;;;;;;10.61;100.00;98669.84;12182469;19;20891;-81
2023/10/25 00:43:19;;;;;;;16.50;7.55;;;;;;;10.62;100.00;98659.63;12217244;19;20062;-82
2023/10/25 00:47:23;;;;;;;20.98;7.20;;;;;;;10.60;100.00;98659.13;12185416;19;20029;-83
2023/10/25 00:51:28;;;;;;;16.35;7.50;;;;;;;10.60;100.00;98662.69;12209146;19;20031;-82
2023/10/25 00:55:34;;;;;;;21.13;8.07;;;;;;;10.58;100.00;98661.31;12202219;19;20018;-81
2023/10/25 00:59:39;;;;;;;18.30;7.55;;;;;;;10.58;100.00;98656.63;12174747;19;20038;-82
2023/10/25 01:03:41;;;;;;;22.55;8.52;;;;;;;10.60;100.00;98648.91;12213851;19;20579;-81
2023/10/25 01:07:44;;;;;;;20.42;7.97;;;;;;;10.61;100.00;98650.56;12202546;19;20017;-82
2023/10/25 01:11:46;;;;;;;23.27;8.32;;;;;;;10.65;100.00;98639.81;12179634;19;20093;-82
2023/10/25 01:15:49;;;;;;;19.73;8.90;;;;;;;10.66;100.00;98638.72;12202203;19;20010;-83
2023/10/25 01:19:52;;;;;;;22.10;9.32;;;;;;;10.67;100.00;98637.59;12200268;19;20017;-82
2023/10/25 01:23:54;;;;;;;23.15;8.02;;;;;;;10.68;100.00;98628.25;12181229;19;20469;-82
2023/10/25 01:27:56;;;;;;;25.90;8.38;;;;;;;10.69;100.00;98644.47;12196637;19;20017;-81
2023/10/25 01:31:58;;;;;;;21.38;8.35;;;;;;;10.69;100.00;98647.25;12199686;19;20011;-82
2023/10/25 01:36:00;;;;;;;22.08;8.38;;;;;;;10.71;100.00;98638.72;12169794;19;20015;-81
2023/10/25 01:40:04;;;;;;;22.38;8.10;;;;;;;10.74;100.00;98640.91;12192284;19;20019;-81
2023/10/25 01:44:06;;;;;;;16.50;7.22;;;;;;;10.74;100.00;98646.41;12198368;19;20038;-81
2023/10/25 01:48:08;;;;;;;18.98;8.43;;;;;;;10.76;100.00;98637.84;12174810;19;20028;-82
2023/10/25 01:52:12;;;;;;;18.73;7.80;;;;;;;10.78;100.00;98646.69;12201907;19;20006;-82
2023/10/25 01:56:13;;;;;;;20.15;7.70;;;;;;;10.77;100.00;98642.25;12177992;19;21416;-80
2023/10/25 02:00:16;;;;;;;17.80;6.85;;;;;;;10.78;100.00;98643.91;12195623;19;20074;-80
2023/10/25 02:04:18;;;;;;;17.95;7.40;;;;;;;10.77;100.00;98631.22;12203003;19;19999;-81
2023/10/25 02:08:21;;;;;;;18.40;7.95;;;;;;;10.78;100.00;98632.91;12176688;19;20014;-81
2023/10/25 02:12:24;;;;;;;15.95;7.30;;;;;;;10.78;100.00;98628.22;12195097;19;20027;-82
2023/10/25 02:16:27;;;;;;;13.90;6.35;;;;;;;10.79;100.00;98623.50;12195671;19;20002;-81
2023/10/25 02:20:29;;;;;;;11.80;4.78;;;;;;;10.80;100.00;98622.44;12172047;19;20022;-82
2023/10/25 02:24:31;;;;;;;16.53;6.60;;;;;;;10.80;100.00;98614.16;12208199;19;20011;-81
2023/10/25 02:28:34;;;;;;;16.00;6.43;;;;;;;10.80;100.00;98614.16;12201916;19;20493;-81
2023/10/25 02:32:36;;;;;;;20.02;6.07;;;;;;;10.78;100.00;98600.66;12178164;19;20031;-82
2023/10/25 02:36:39;;;;;;;;;;;;;;;10.75;100.00;98603.97;12208363;19;20069;-82
2023/10/25 02:40:41;;;;;;;9.60;4.63;;;;;;;10.70;100.00;98610.31;12198786;19;19915;-82
2023/10/25 02:44:43;;;;;;;8.07;4.07;;;;;;;10.66;100.00;98608.41;12176231;19;20006;-80
2023/10/25 02:48:45;;;;;;;14.40;4.35;;;;;;;10.62;100.00;98608.16;12195814;19;20010;-82
2023/10/25 02:52:48;;;;;;;9.43;4.20;;;;;;;10.55;100.00;98595.75;12195345;19;20086;-82
2023/10/25 02:56:51;;;;;;;15.63;4.80;;;;;;;10.47;100.00;98584.22;12176219;19;20003;-82
2023/10/25 03:00:54;;;;;;;9.43;4.10;;;;;;;10.39;100.00;98584.78;12198025;19;20020;-81
2023/10/25 03:04:58;;;;;;;10.57;3.88;;;;;;;10.30;100.00;98582.88;12201243;19;20006;-81
2023/10/25 03:09:00;;;;;;;11.15;3.70;;;;;;;10.17;100.00;98589.72;12172402;19;20018;-82
2023/10/25 03:13:02;;;;;;;9.32;4.05;;;;;;;10.06;100.00;98590.88;12202274;19;20014;-83
2023/10/25 03:17:04;;;;;;;10.77;4.47;;;;;;;9.93;100.00;98589.47;12197603;19;20069;-81
2023/10/25 03:21:07;;;;;;;8.55;4.15;;;;;;;9.81;100.00;98576.84;12194680;19;20658;-82
2023/10/25 03:25:09;;;;;;;9.40;3.88;;;;;;;9.70;100.00;98579.84;12209256;19;20007;-83
2023/10/25 03:29:11;;;;;;;13.20;4.05;;;;;;;9.59;100.00;98574.34;12177180;19;20453;-82
2023/10/25 03:33:13;;;;;;;11.37;4.47;;;;;;;9.55;100.00;98567.75;12200557;19;20018;-81
2023/10/25 03:37:15;;;;;;;9.27;3.92;;;;;;;9.49;100.00;98566.09;12194734;19;20022;-82
2023/10/25 03:41:17;;;;;;;12.30;4.10;;;;;;;9.44;100.00;98560.56;12177150;19;20078;-82
2023/10/25 03:45:19;;;;;;;7.03;2.93;;;;;;;9.39;100.00;98557.81;12199695;19;20994;-81
2023/10/25 03:49:21;;;;;;;4.20;2.47;;;;;;;9.36;100.00;98547.34;12192828;19;20030;-82
2023/10/25 03:53:23;;;;;;;8.63;4.10;;;;;;;9.32;100.00;98546.25;12174868;19;20074;-82
2023/10/25 03:57:27;;;;;;;12.70;3.85;;;;;;;9.27;100.00;98540.75;12195913;19;20006;-82
2023/10/25 04:01:29;;;;;;;8.25;4.07;;;;;;;9.22;100.00;98532.47;12194222;19;20006;-81
2023/10/25 04:05:31;;;;;;;11.80;4.40;;;;;;;9.16;100.00;98528.94;12177746;19;20465;-82
2023/10/25 04:09:34;;;;;;;10.85;3.97;;;;;;;9.09;100.00;98518.16;12189247;19;19999;-81
2023/10/25 04:13:36;;;;;;;13.07;3.65;;;;;;;9.08;100.00;98532.19;12188376;19;20002;-82
2023/10/25 04:17:38;;;;;;;11.80;4.57;;;;;;;9.00;100.00;98525.28;12165618;19;20009;-81
2023/10/25 04:21:41;;;;;;;6.57;3.23;;;;;;;8.94;100.00;98518.13;12206537;19;20039;-83
2023/10/25 04:25:43;;;;;;;;;;;;;;;8.85;100.00;98503.28;12200977;19;20007;-81
2023/10/25 04:29:45;;;;;;;5.88;2.58;;;;;;;8.80;100.00;98497.78;12168512;19;19910;-82
2023/10/25 04:33:50;;;;;;;6.30;2.55;;;;;;;8.78;100.00;98492.56;12192736;19;20045;-83
2023/10/25 04:37:54;;;;;;;6.00;2.45;;;;;;;8.79;100.00;98485.13;12183674;19;20010;-83
2023/10/25 04:41:56;;;;;;;9.82;3.03;;;;;;;8.80;100.00;98478.53;12169589;19;20454;-82
2023/10/25 04:45:59;;;;;;;7.55;2.85;;;;;;;8.80;100.00;98481.28;12191214;19;20047;-82
2023/10/25 04:50:04;;;;;;;5.47;2.38;;;;;;;8.80;100.00;98471.13;12189491;19;20006;-83
2023/10/25 04:54:07;;;;;;;4.40;2.28;;;;;;;8.81;100.00;98470.03;12167489;19;20382;-82
2023/10/25 04:58:09;;;;;;;8.07;3.00;;;;;;;8.82;100.00;98471.69;12187927;19;20014;-82
2023/10/25 05:02:12;;;;;;;9.55;3.47;;;;;;;8.84;100.00;98465.94;12175672;19;20010;-83
2023/10/25 05:06:20;;;;;;;6.88;2.85;;;;;;;8.84;100.00;98464.00;12200691;19;20496;-84
2023/10/25 05:10:23;;;;;;;10.48;3.10;;;;;;;8.87;100.00;98462.66;12201751;19;20350;-82
2023/10/25 05:14:25;;;;;;;5.83;2.80;;;;;;;8.89;100.00;98465.91;12179176;19;20018;-81
2023/10/25 05:18:27;;;;;;;7.82;2.92;;;;;;;8.91;100.00;98452.75;12199739;19;20010;-81
2023/10/25 05:22:33;;;;;;;8.15;3.15;;;;;;;8.95;100.00;98455.78;12201141;19;20041;-82
2023/10/25 05:26:37;;;;;;;7.85;3.08;;;;;;;8.99;100.00;98463.22;12181282;19;20046;-82
2023/10/25 05:30:39;;;;;;;4.57;2.80;;;;;;;8.99;100.00;98460.47;12196714;19;20014;-83
2023/10/25 05:34:41;;;;;;;7.45;3.85;;;;;;;9.08;100.00;98453.31;12200792;19;20006;-82
2023/10/25 05:38:43;;;;;;;9.57;3.83;;;;;;;9.20;100.00;98449.50;12177680;19;20002;-83
2023/10/25 05:42:47;;;;;;;11.53;4.87;;;;;;;9.34;100.00;98451.44;12199757;19;20348;-82
2023/10/25 05:46:49;;;;;;;10.75;5.20;;;;;;;9.44;100.00;98444.28;12196334;19;20003;-82
2023/10/25 05:50:53;;;;;;;14.60;5.35;;;;;;;9.54;100.00;98445.06;12178036;19;21290;-83
2023/10/25 05:54:55;;;;;;;;;;;;;;;9.59;100.00;98445.06;12200180;19;20010;-82
2023/10/25 05:58:57;;;;;;;13.32;5.90;;;;;;;9.58;100.00;98439.88;12196469;19;19907;-83
2023/10/25 06:03:01;;;;;;;17.67;7.53;;;;;;;9.59;100.00;98428.56;12178800;19;20014;-82
2023/10/25 06:07:03;;;;;;;20.55;8.30;;;;;;;9.57;100.00;98430.75;12192638;19;20047;-81
2023/10/25 06:11:05;;;;;;;21.88;8.05;;;;;;;9.57;100.00;98416.19;12188792;19;20101;-84
2023/10/25 06:15:09;;;;;;;19.52;8.18;;;;;;;9.56;100.00;98412.63;12168952;19;20355;-81
2023/10/25 06:19:11;;;;;;;24.55;8.88;;;;;;;9.61;100.00;98410.97;12200826;19;20003;-82
2023/10/25 06:23:13;;;;;;;27.57;9.27;;;;;;;9.64;100.00;98404.91;12177979;19;20571;-81
2023/10/25 06:27:15;;;;;;;26.30;10.20;;;;;;;9.68;100.00;98397.75;12201741;19;21083;-82
2023/10/25 06:31:17;;;;;;;22.05;9.43;;;;;;;9.72;100.00;98390.59;12202548;19;20018;-83
2023/10/25 06:35:18;;;;;;;28.88;9.80;;;;;;;9.76;100.00;98386.19;12182262;19;20010;-83
2023/10/25 06:39:20;;;;;;;26.02;9.93;;;;;;;9.80;100.00;98379.03;12200565;19;19999;-83
2023/10/25 06:43:23;;;;;;;26.30;12.07;;;;;;;9.82;100.00;98379.56;12204329;19;20013;-81
2023/10/25 06:47:26;;;;;;;40.25;18.38;;;;;;;9.88;100.00;98389.47;12179844;19;20010;-81
2023/10/25 06:51:28;;;;;;;25.70;10.52;;;;;;;9.90;100.00;98389.97;12199750;19;20010;-82
2023/10/25 06:55:30;;;;;;;17.77;7.83;;;;;;;9.92;100.00;98368.53;12201214;19;20479;-81
2023/10/25 06:59:33;;;;;;;22.77;8.57;;;;;;;9.95;100.00;98359.69;12171547;19;20019;-80
2023/10/25 07:03:36;;;;;;;36.88;20.00;;;;;;;10.00;100.00;98348.69;12196422;19;20002;-81
2023/10/25 07:07:40;;;;;;;24.67;13.02;;;;;;;10.09;100.00;98339.84;12186271;19;20011;-80
2023/10/25 07:11:42;;;;;;;19.35;8.90;;;;;;;10.22;100.00;98325.44;12163181;19;20011;-80
2023/10/25 07:15:43;;;;;;;21.55;11.95;;;;;;;10.34;100.00;98325.97;12190551;19;20007;-80
2023/10/25 07:19:47;;;;;;;10.15;4.97;;;;;;;10.41;100.00;98314.63;12191070;19;20007;-79
2023/10/25 07:23:49;;;;;;;11.75;4.47;;;;;;;10.47;100.00;98311.56;12177117;19;20014;-80
2023/10/25 07:27:50;;;;;;;12.95;5.65;;;;;;;10.59;100.00;98304.84;12198922;19;20025;-80
2023/10/25 07:31:52;;;;;;;10.05;4.45;;;;;;;10.66;100.00;98300.69;12206738;19;20010;-81
2023/10/25 07:35:54;;;;;;;11.82;5.55;;;;;;;10.70;100.00;98293.47;12173612;19;20006;-80
2023/10/25 07:39:56;;;;;;;10.20;5.55;;;;;;;10.77;100.00;98287.66;12196725;19;20017;-80
2023/10/25 07:43:59;;;;;;;13.80;5.28;;;;;;;10.83;100.00;98286.50;12193899;19;20343;-81
2023/10/25 07:48:00;;;;;;;9.90;5.13;;;;;;;10.91;100.00;98301.56;12178027;19;20010;-81
2023/10/25 07:52:05;;;;;;;10.95;5.50;;;;;;;11.08;100.00;98290.13;12195568;19;20014;-80
2023/10/25 07:56:07;;;;;;;13.15;5.60;;;;;;;11.26;100.00;98277.56;12199534;19;20006;-80
2023/10/25 08:00:31;;;;;;;11.48;5.45;;;;;;;11.44;100.00;98273.22;12170555;19;20574;-80
2023/10/25 08:04:33;;;;;;;13.57;6.20;;;;;;;11.51;100.00;98257.13;12199492;19;20022;-82
2023/10/25 08:08:34;;;;;;;11.90;5.82;;;;;;;11.56;100.00;98257.06;12171953;19;20007;-81
2023/10/25 08:12:36;;;;;;;11.52;6.57;;;;;;;11.62;100.00;98253.94;12194406;19;20007;-82
2023/10/25 08:16:39;;;;;;;11.70;6.03;;;;;;;11.67;100.00;98255.84;12192102;19;20009;-82
2023/10/25 08:20:41;;;;;;;12.13;7.45;;;;;;;11.81;100.00;98244.91;12172779;19;20035;-83
2023/10/25 08:24:44;;;;;;;10.20;5.53;;;;;;;12.02;100.00;98249.06;12191565;19;21487;-81
2023/10/25 08:28:46;;;;;;;7.82;4.50;;;;;;;12.21;100.00;98254.59;12192555;19;20355;-80
2023/10/25 08:32:48;;;;;;;13.82;5.20;;;;;;;12.46;100.00;98247.88;12171035;19;20020;-82
2023/10/25 08:36:52;;;;;;;8.38;4.10;;;;;;;12.67;100.00;98229.00;12202824;19;20010;-81
2023/10/25 08:41:01;;;;;;;8.73;4.00;;;;;;;12.96;100.00;98242.59;12210745;19;20006;-82
2023/10/25 08:45:06;;;;;;;7.57;3.35;;;;;;;13.18;100.00;98219.00;12185845;19;20356;-81
2023/10/25 08:49:08;;;;;;;5.90;3.42;;;;;;;13.32;100.00;98191.34;12225754;19;20626;-82
2023/10/25 08:53:10;;;;;;;5.67;2.90;;;;;;;13.47;100.00;98188.25;12188437;19;20829;-80
2023/10/25 08:57:12;;;;;;;8.00;3.17;;;;;;;13.55;100.00;98206.09;12212697;19;20483;-80
2023/10/25 09:01:14;;;;;;;4.88;2.60;;;;;;;13.74;100.00;98186.59;12207711;19;20512;-80
2023/10/25 09:05:16;;;;;;;4.90;2.70;;;;;;;14.09;100.00;98187.75;12185625;19;20015;-80
2023/10/25 09:09:22;;;;;;;6.25;2.75;;;;;;;14.62;100.00;98151.00;12214250;19;20003;-79
2023/10/25 09:13:24;;;;;;;4.35;2.67;;;;;;;14.97;100.00;98152.03;12211761;19;20010;-81
2023/10/25 09:17:26;;;;;;;6.00;2.65;;;;;;;15.09;100.00;98148.66;12196828;19;21119;-80
2023/10/25 09:21:28;;;;;;;3.88;2.58;;;;;;;15.03;100.00;98155.47;12211159;19;20033;-79
2023/10/25 09:25:30;;;;;;;3.50;2.22;;;;;;;15.02;100.00;98148.28;12204525;19;20042;-78
2023/10/25 09:29:35;;;;;;;3.67;2.30;;;;;;;15.14;100.00;98144.88;12178909;19;20062;-79
2023/10/25 09:33:39;;;;;;;4.25;2.20;;;;;;;15.27;100.00;98135.66;12204467;19;20010;-79
2023/10/25 09:37:42;;;;;;;6.53;2.15;;;;;;;15.31;100.00;98136.63;12199539;19;20034;-78
2023/10/25 09:41:50;;;;;;;7.00;3.08;;;;;;;15.33;100.00;98139.09;12179742;19;20002;-79
2023/10/25 09:45:56;;;;;;;4.00;2.55;;;;;;;15.25;100.00;98141.50;12197956;19;20075;-78
2023/10/25 09:50:10;;;;;;;4.00;2.05;;;;;;;15.06;100.00;98142.91;12201616;19;21411;-78
2023/10/25 09:54:13;;;;;;;3.45;2.25;;;;;;;14.83;100.00;98145.75;12179650;19;20029;-78
2023/10/25 09:58:18;;;;;;;;;;;;;;;14.61;100.00;98141.06;12202159;19;20011;-78
2023/10/25 10:02:40;;;;;;;4.22;2.38;;;;;;;14.53;100.00;98134.31;12184491;19;19929;-78
2023/10/25 10:07:07;;;;;;;5.75;2.60;;;;;;;14.47;100.00;98127.25;12202483;19;20007;-79
2023/10/25 10:11:16;;;;;;;9.73;2.80;;;;;;;14.42;100.00;98113.50;12191015;19;19999;-78
2023/10/25 10:15:19;;;;;;;7.80;3.17;;;;;;;14.40;100.00;98120.53;12203611;19;20006;-79
2023/10/25 10:19:21;;;;;;;5.00;3.03;;;;;;;14.33;100.00;98112.63;12194580;19;20026;-80
2023/10/25 10:23:34;;;;;;;4.50;2.83;;;;;;;14.27;100.00;98102.81;12168538;19;20019;-80
2023/10/25 10:27:42;;;;;;;5.15;3.00;;;;;;;14.18;100.00;98102.75;12187988;19;20018;-80
2023/10/25 10:31:58;;;;;;;3.78;2.50;;;;;;;14.12;100.00;98092.94;12193037;19;20015;-80
2023/10/25 10:36:03;;;;;;;5.15;2.67;;;;;;;14.04;100.00;98089.00;12169058;19;20014;-80
2023/10/25 10:40:06;;;;;;;5.43;2.63;;;;;;;14.06;100.00;98067.31;12185106;19;20030;-81
2023/10/25 10:44:11;;;;;;;6.22;3.72;;;;;;;14.02;100.00;98059.97;12182334;19;20400;-80
2023/10/25 10:48:20;;;;;;;6.18;2.65;;;;;;;13.99;100.00;98041.22;12184621;19;20034;-79
2023/10/25 10:52:22;;;;;;;3.90;2.33;;;;;;;14.04;100.00;98022.53;12182421;19;20010;-80
2023/10/25 10:56:24;;;;;;;5.17;1.90;;;;;;;14.09;100.00;98004.94;12161944;19;20359;-81
2023/10/25 11:00:26;;;;;;;4.33;2.13;;;;;;;14.13;100.00;97998.47;12182164;19;20006;-80
2023/10/25 11:04:29;;;;;;;2.83;1.50;;;;;;;14.14;100.00;97991.78;12186993;19;20011;-81
2023/10/25 11:08:32;;;;;;;3.13;1.80;;;;;;;14.08;100.00;97970.09;12168658;19;20458;-81
2023/10/25 11:12:37;;;;;;;2.60;1.42;;;;;;;13.94;100.00;97959.09;12199161;19;20006;-80
2023/10/25 11:16:39;;;;;;;3.30;1.88;;;;;;;13.87;100.00;97959.53;12200818;19;20014;-80
2023/10/25 11:20:41;;;;;;;3.28;1.70;;;;;;;13.84;100.00;97949.09;12182775;19;20372;-80
2023/10/25 11:24:47;;;;;;;4.18;1.73;;;;;;;13.80;100.00;97936.19;12190311;19;21389;-80
2023/10/25 11:28:49;;;;;;;3.40;1.80;;;;;;;13.72;100.00;97931.44;12178730;19;20078;-80
2023/10/25 11:32:52;;;;;;;4.70;1.83;;;;;;;13.66;100.00;97911.38;12164188;19;20050;-80
2023/10/25 11:36:54;;;;;;;3.45;1.60;;;;;;;13.62;100.00;97908.44;12197893;19;20480;-80
2023/10/25 11:40:56;;;;;;;4.15;1.90;;;;;;;13.58;100.00;97893.59;12201217;19;20018;-81
2023/10/25 11:45:03;;;;;;;3.90;1.77;;;;;;;13.55;100.00;97883.16;12180783;19;20859;-80
2023/10/25 11:49:05;;;;;;;6.43;1.70;;;;;;;13.56;100.00;97872.88;12188183;19;20379;-79
2023/10/25 11:53:11;;;;;;;1.85;1.08;;;;;;;13.50;100.00;97865.84;12182511;19;20002;-79
2023/10/25 11:57:13;;;;;;;2.28;1.50;;;;;;;13.40;100.00;97855.88;12181893;19;20028;-79
2023/10/25 12:01:15;;;;;;;3.05;1.50;;;;;;;13.30;100.00;97856.16;12178828;19;20003;-79
2023/10/25 12:05:18;;;;;;;1.35;0.82;;;;;;;13.28;100.00;97847.34;12160564;19;20006;-79
2023/10/25 12:09:20;;;;;;;2.97;1.42;;;;;;;13.28;100.00;97830.75;12179965;19;20006;-79
2023/10/25 12:13:22;;;;;;;3.00;1.50;;;;;;;13.25;100.00;97828.59;12189786;19;20451;-80
2023/10/25 12:17:25;;;;;;;3.75;1.55;;;;;;;13.22;100.00;97825.31;12165801;19;20014;-80
2023/10/25 12:21:27;;;;;;;3.05;1.60;;;;;;;13.25;100.00;97815.59;12191020;19;20064;-79
2023/10/25 12:25:29;;;;;;;5.00;1.20;;;;;;;13.36;100.00;97805.09;12190852;19;20043;-80
2023/10/25 12:29:31;;;;;;;3.00;1.33;;;;;;;13.36;100.00;97805.91;12164064;19;20018;-79
2023/10/25 12:33:33;;;;;;;2.40;1.30;;;;;;;13.36;100.00;97788.50;12196407;19;20045;-80
2023/10/25 12:37:35;;;;;;;3.47;1.40;;;;;;;13.38;100.00;97773.19;12191260;19;20006;-80
2023/10/25 12:41:37;;;;;;;2.13;1.30;;;;;;;13.32;100.00;97765.34;12173597;19;20083;-80
2023/10/25 12:45:39;;;;;;;3.47;1.42;;;;;;;13.34;100.00;97761.13;12189428;19;20699;-80
2023/10/25 12:49:42;;;;;;;1.70;0.85;;;;;;;13.42;100.00;97752.06;12191623;19;20596;-80
2023/10/25 12:53:44;;;;;;;2.67;1.00;;;;;;;13.51;100.00;97746.56;12170856;19;20097;-81
2023/10/25 12:57:46;;;;;;;0.98;0.73;;;;;;;13.66;100.00;97746.16;12191349;19;20086;-81
2023/10/25 13:01:50;;;;;;;2.90;1.20;;;;;;;13.64;100.00;97734.56;12200895;19;20014;-82
2023/10/25 13:05:55;;;;;;;2.90;1.10;;;;;;;13.74;100.00;97727.94;12172419;19;20014;-80
2023/10/25 13:09:57;;;;;;;;;;;;;;;13.76;100.00;97725.66;12191795;19;20033;-80
2023/10/25 13:14:02;;;;;;;1.85;1.10;;;;;;;13.82;100.00;97729.09;12193076;19;19922;-80
2023/10/25 13:18:05;;;;;;;3.35;1.08;;;;;;;13.87;100.00;97715.09;12170938;19;20094;-80
2023/10/25 13:22:07;;;;;;;2.53;1.45;;;;;;;13.84;100.00;97718.50;12198943;19;20070;-81
2023/10/25 13:26:09;;;;;;;2.15;0.82;;;;;;;13.83;100.00;97716.88;12180157;19;20022;-78
2023/10/25 13:30:11;;;;;;;2.57;1.13;;;;;;;13.74;100.00;97704.97;12177540;19;20094;-78
2023/10/25 13:34:13;;;;;;;4.13;1.63;;;;;;;13.67;100.00;97703.47;12186126;19;20356;-78
2023/10/25 13:38:18;;;;;;;2.75;1.10;;;;;;;13.70;100.00;97692.91;12165944;19;20331;-79
2023/10/25 13:42:20;;;;;;;1.42;0.93;;;;;;;13.80;100.00;97689.81;12186829;19;20006;-79
2023/10/25 13:46:22;;;;;;;;;;;;;;;13.85;100.00;97693.25;12193182;19;20382;-79
2023/10/25 13:50:24;;;;;;;2.03;1.10;;;;;;;13.83;100.00;97687.25;12176991;19;20257;-79
2023/10/25 13:54:27;;;;;;;2.07;1.30;;;;;;;13.85;100.00;97673.88;12191840;19;20023;-79
2023/10/25 13:58:30;;;;;;;2.78;1.30;;;;;;;13.99;100.00;97673.75;12186990;19;20007;-79
2023/10/25 14:02:32;;;;;;;3.05;1.33;;;;;;;14.07;100.00;97667.41;12173378;19;20060;-79
2023/10/25 14:06:36;;;;;;;2.53;1.48;;;;;;;14.14;100.00;97658.59;12190160;19;20010;-79
2023/10/25 14:10:45;;;;;;;3.33;1.50;;;;;;;14.22;100.00;97665.28;12206443;19;20046;-78
2023/10/25 14:14:48;;;;;;;2.70;1.60;;;;;;;14.27;100.00;97646.53;12170687;19;20500;-78
2023/10/25 14:18:51;;;;;;;4.13;1.70;;;;;;;14.24;100.00;97643.59;12191424;19;20082;-79
2023/10/25 14:22:55;;;;;;;3.67;1.30;;;;;;;14.27;100.00;97640.19;12195883;19;20591;-79
2023/10/25 14:26:57;;;;;;;3.05;1.55;;;;;;;14.24;100.00;97638.06;12167850;19;20078;-78
2023/10/25 14:30:59;;;;;;;2.83;1.60;;;;;;;14.15;100.00;97632.53;12185237;19;20010;-79
2023/10/25 14:35:01;;;;;;;2.77;1.60;;;;;;;14.09;100.00;97629.09;12192099;19;20030;-78
2023/10/25 14:39:03;;;;;;;2.40;1.57;;;;;;;14.07;100.00;97623.09;12178457;19;20098;-79
2023/10/25 14:43:05;;;;;;;3.23;1.73;;;;;;;14.04;100.00;97620.16;12203061;19;20248;-79
2023/10/25 14:47:09;;;;;;;2.22;1.38;;;;;;;14.03;100.00;97607.44;12201250;19;20089;-78
2023/10/25 14:51:19;;;;;;;2.10;1.30;;;;;;;14.08;100.00;97607.28;12178078;19;20019;-78
2023/10/25 14:55:21;;;;;;;6.22;1.73;;;;;;;14.07;100.00;97598.19;12210436;19;20011;-78
2023/10/25 14:59:23;;;;;;;2.83;1.48;;;;;;;14.05;100.00;97599.63;12178427;19;20011;-79
2023/10/25 15:03:25;;;;;;;2.70;1.83;;;;;;;14.04;100.00;97596.06;12210654;19;20010;-78
2023/10/25 15:07:27;;;;;;;3.40;1.50;;;;;;;14.06;100.00;97592.94;12207022;19;20038;-79
2023/10/25 15:11:30;;;;;;;2.53;1.30;;;;;;;14.04;100.00;97589.69;12192915;19;20914;-79
2023/10/25 15:15:33;;;;;;;2.65;1.40;;;;;;;14.03;100.00;97596.38;12201756;19;20017;-79
2023/10/25 15:19:35;;;;;;;3.78;1.70;;;;;;;14.06;100.00;97591.00;12208985;19;20029;-78
2023/10/25 15:23:37;;;;;;;3.75;1.63;;;;;;;14.03;100.00;97577.81;12187263;19;20022;-78
2023/10/25 15:27:39;;;;;;;3.03;1.73;;;;;;;14.00;100.00;97578.47;12204831;19;20010;-77
2023/10/25 15:31:41;;;;;;;8.43;1.93;;;;;;;14.04;100.00;97578.59;12210926;19;20018;-77
2023/10/25 15:35:43;;;;;;;3.03;1.98;;;;;;;14.00;100.00;97572.91;12181811;19;20003;-79
2023/10/25 15:39:45;;;;;;;5.65;2.45;;;;;;;13.96;100.00;97583.03;12192399;19;20353;-78
2023/10/25 15:44:06;;;;;;;6.05;3.65;;;;;;;13.89;100.00;97574.38;12185344;19;20007;-78
2023/10/25 15:48:08;;;;;;;8.40;4.10;;;;;;;13.91;100.00;97572.91;12154718;19;20391;-77
2023/10/25 15:52:13;;;;;;;5.10;3.63;;;;;;;13.85;100.00;97562.34;12173993;19;20019;-76
2023/10/25 15:56:15;;;;;;;6.43;4.38;;;;;;;13.85;100.00;97557.63;12150521;19;20030;-77
2023/10/25 16:00:17;;;;;;;7.13;4.20;;;;;;;13.86;100.00;97553.72;12170221;19;20080;-77
2023/10/25 16:04:19;;;;;;;6.70;4.13;;;;;;;13.82;100.00;97558.28;12170363;19;20011;-77
2023/10/25 16:08:21;;;;;;;9.32;3.88;;;;;;;13.82;100.00;97543.63;12146756;19;20013;-77
2023/10/25 16:12:27;;;;;;;14.73;4.00;;;;;;;13.81;100.00;97530.94;12169766;19;20013;-77
2023/10/25 16:16:29;;;;;;;4.78;3.22;;;;;;;13.82;100.00;97529.78;12171713;19;20062;-77
2023/10/25 16:20:33;;;;;;;8.97;3.30;;;;;;;13.82;100.00;97530.59;12145288;19;20045;-77
2023/10/25 16:24:35;;;;;;;6.28;2.47;;;;;;;13.81;100.00;97528.16;12169720;19;20003;-77
2023/10/25 16:28:38;;;;;;;5.60;2.95;;;;;;;13.81;100.00;97522.63;12167472;19;20024;-76
2023/10/25 16:32:40;;;;;;;4.90;2.55;;;;;;;13.84;100.00;97527.50;12144806;19;20027;-77
2023/10/25 16:36:42;;;;;;;3.97;2.80;;;;;;;13.82;100.00;97522.28;12169859;19;20015;-77
2023/10/25 16:41:03;;;;;;;4.60;3.03;;;;;;;13.86;100.00;97528.81;12169227;19;20002;-77
2023/10/25 16:45:05;;;;;;;4.78;3.42;;;;;;;13.83;100.00;97525.84;12143743;19;20021;-77
2023/10/25 16:49:07;;;;;;;6.95;3.40;;;;;;;13.81;100.00;97520.66;12168560;19;20454;-76
2023/10/25 16:53:09;;;;;;;4.30;3.20;;;;;;;13.84;100.00;97522.78;12162095;19;20018;-77
2023/10/25 16:57:11;;;;;;;4.03;3.00;;;;;;;13.84;100.00;97530.28;12171953;19;19999;-76
2023/10/25 17:01:14;;;;;;;5.85;2.83;;;;;;;13.81;100.00;97533.69;12184725;19;20025;-77
2023/10/25 17:05:17;;;;;;;7.78;1.90;;;;;;;13.74;100.00;97533.34;12163798;19;20013;-76
2023/10/25 17:09:22;;;;;;;2.85;1.92;;;;;;;13.71;100.00;97534.00;12182531;19;20661;-76
2023/10/25 17:13:31;;;;;;;4.05;1.70;;;;;;;13.66;100.00;97548.84;12187046;19;20748;-76
2023/10/25 17:17:34;;;;;;;2.95;1.45;;;;;;;13.57;100.00;97554.38;12166066;19;20015;-77
2023/10/25 17:21:40;;;;;;;2.45;1.10;;;;;;;13.47;100.00;97551.91;12181393;19;20014;-77
2023/10/25 17:25:44;;;;;;;1.65;1.00;;;;;;;13.36;100.00;97556.94;12185099;19;20030;-77
2023/10/25 17:29:46;;;;;;;2.97;1.20;;;;;;;13.28;100.00;97548.63;12158491;19;20066;-77
2023/10/25 17:33:48;;;;;;;1.38;0.77;;;;;;;13.29;100.00;97542.75;12174817;19;20006;-77
2023/10/25 17:37:50;;;;;;;4.60;1.00;;;;;;;13.19;100.00;97540.28;12184829;19;20096;-77
2023/10/25 17:41:52;;;;;;;1.50;0.85;;;;;;;13.15;100.00;97537.38;12163301;19;20010;-77
2023/10/25 17:45:56;;;;;;;1.98;1.00;;;;;;;13.13;100.00;97534.09;12181675;19;20537;-77
2023/10/25 17:50:01;;;;;;;2.47;1.08;;;;;;;13.14;100.00;97532.94;12176005;19;20046;-78
2023/10/25 17:54:03;;;;;;;3.75;1.80;;;;;;;13.17;100.00;97537.84;12161512;19;20092;-78
2023/10/25 17:58:10;;;;;;;2.88;1.33;;;;;;;13.16;100.00;97530.69;12178731;19;20043;-77
2023/10/25 18:02:12;;;;;;;3.78;2.03;;;;;;;13.19;100.00;97526.47;12161083;19;20106;-77
2023/10/25 18:06:15;;;;;;;4.55;2.08;;;;;;;13.18;100.00;97522.88;12181329;19;20918;-78
2023/10/25 18:10:20;;;;;;;2.85;1.92;;;;;;;13.18;100.00;97522.88;12176601;19;20425;-77
2023/10/25 18:14:22;;;;;;;5.07;2.10;;;;;;;13.19;100.00;97512.63;12162808;19;21169;-78
2023/10/25 18:18:24;;;;;;;3.13;1.67;;;;;;;13.17;100.00;97512.94;12181240;19;20007;-77
2023/10/25 18:22:26;;;;;;;3.75;1.38;;;;;;;13.14;100.00;97507.25;12181666;19;20014;-77
2023/10/25 18:26:28;;;;;;;3.28;1.50;;;;;;;13.16;100.00;97508.56;12164301;19;20010;-77
2023/10/25 18:30:30;;;;;;;2.35;1.20;;;;;;;13.13;100.00;97498.16;12183873;19;20107;-78
2023/10/25 18:34:51;;;;;;;2.88;1.30;;;;;;;13.18;100.00;97513.78;12178374;19;20003;-79
2023/10/25 18:38:54;;;;;;;3.20;1.10;;;;;;;13.18;100.00;97511.81;12161814;19;20391;-79